Time;durP1;ratioP1;P1;durP2;ratioP2;P2;SDS_P1;SDS_P2;PMS_P1;PMS_P2;Temp;Humidity;BMP_temperature;BMP_pressure;BME280_temperature;BME280_humidity;BME280_pressure;Samples;Min_cycle;Max_cycle;Signal;HPM_P1;HPM_P2
2023/03/24 00:01:24;;;;;;;;;;;11.20;99.90;;;;;;5016380;28;19925;-88
2023/03/24 00:03:50;;;;;;;;;;;11.20;99.90;;;;;;5015814;28;19932;-89
2023/03/24 00:06:21;;;;;;;;;;;11.20;99.90;;;;;;5015925;28;20000;-88
2023/03/24 00:08:49;;;;;;;;;;;11.00;99.90;;;;;;5017623;28;20280;-89
2023/03/24 00:11:17;;;;;;;;;;;11.20;99.90;;;;;;4992667;28;19929;-90
2023/03/24 00:13:50;;;;;;;;;;;11.00;99.90;;;;;;5018764;28;19929;-88
2023/03/24 00:16:18;;;;;;;;;;;11.10;99.90;;;;;;5026999;28;19933;-89
2023/03/24 00:18:52;;;;;;;;;;;12.10;99.90;;;;;;5019919;28;20071;-90
2023/03/24 00:21:40;;;;;;;;;;;11.00;99.90;;;;;;5034331;28;20431;-89
2023/03/24 00:24:14;;;;;;;;;;;11.10;99.90;;;;;;5030758;28;19925;-89
2023/03/24 00:26:40;;;;;;;;;;;11.00;99.90;;;;;;5013877;28;19929;-88
2023/03/24 00:29:07;;;;;;;;;;;11.10;99.90;;;;;;5018153;28;19925;-89
2023/03/24 00:31:33;;;;;;;;;;;11.10;99.90;;;;;;5017625;28;19936;-89
2023/03/24 00:34:04;;;;;;;;;;;11.20;99.90;;;;;;5034962;28;19932;-88
2023/03/24 00:36:30;;;;;;;;;;;11.20;99.90;;;;;;5033380;28;21297;-88
2023/03/24 00:38:56;;;;;;;;;;;11.10;99.90;;;;;;5018156;28;19998;-90
2023/03/24 00:41:26;;;;;;;;;;;11.20;99.90;;;;;;5016234;28;19936;-88
2023/03/24 00:43:58;;;;;;;;;;;11.10;99.90;;;;;;5034642;28;19947;-88
2023/03/24 00:46:26;;;;;;;;;;;11.10;99.90;;;;;;5016718;28;19929;-88
2023/03/24 00:49:05;;;;;;;;;;;11.10;99.90;;;;;;5017518;28;20470;-88
2023/03/24 00:51:41;;;;;;;;;;;11.00;99.90;;;;;;5017637;28;19948;-89
2023/03/24 00:54:08;;;;;;;;;;;11.00;99.90;;;;;;5017337;28;19932;-89
2023/03/24 00:56:39;;;;;;;;;;;11.10;99.90;;;;;;5003816;28;20016;-88
2023/03/24 00:59:08;;;;;;;;;;;11.00;99.90;;;;;;5034210;28;19925;-88
2023/03/24 01:01:35;;;;;;;;;;;11.20;99.90;;;;;;5017241;28;19925;-88
2023/03/24 01:04:01;;;;;;;;;;;11.10;99.90;;;;;;5014387;28;19932;-88
2023/03/24 01:06:27;;;;;;;;;;;11.10;99.90;;;;;;5020313;28;20353;-89
2023/03/24 01:08:53;;;;;;;;;;;9.50;99.90;;;;;;5016961;28;19932;-88
2023/03/24 01:11:21;;;;;;;;;;;11.00;99.90;;;;;;5032526;28;19929;-90
2023/03/24 01:13:48;;;;;;;;;;;11.00;99.90;;;;;;5017069;28;19968;-89
2023/03/24 01:16:17;;;;;;;;;;;11.10;99.90;;;;;;5019663;28;19926;-89
2023/03/24 01:18:43;;;;;;;;;;;11.10;99.90;;;;;;5005640;28;19929;-89
2023/03/24 01:21:11;;;;;;;;;;;11.10;99.90;;;;;;5016470;28;19971;-88
2023/03/24 01:23:37;;;;;;;;;;;9.50;99.90;;;;;;5016636;28;19960;-88
2023/03/24 01:26:07;;;;;;;;;;;11.10;99.90;;;;;;5015818;28;19932;-89
2023/03/24 01:28:39;;;;;;;;;;;11.00;99.90;;;;;;5016285;28;19976;-88
2023/03/24 01:31:06;;;;;;;;;;;11.00;99.90;;;;;;5010875;28;19926;-87
2023/03/24 01:33:32;;;;;;;;;;;10.80;99.90;;;;;;5016276;28;20336;-88
2023/03/24 01:35:57;;;;;;;;;;;9.70;99.90;;;;;;5011594;28;19988;-88
2023/03/24 01:38:23;;;;;;;;;;;10.90;99.90;;;;;;5028131;28;19925;-88
2023/03/24 01:40:49;;;;;;;;;;;11.10;99.90;;;;;;5032478;28;19925;-88
2023/03/24 01:43:19;;;;;;;;;;;11.00;99.90;;;;;;5031960;28;19932;-89
2023/03/24 01:45:57;;;;;;;;;;;10.90;99.90;;;;;;5015806;28;19955;-88
2023/03/24 01:48:25;;;;;;;;;;;10.20;99.90;;;;;;5033045;28;20008;-87
2023/03/24 01:51:06;;;;;;;;;;;9.40;99.90;;;;;;5014698;28;19925;-90
2023/03/24 01:53:32;;;;;;;;;;;11.00;99.90;;;;;;5006814;28;20337;-88
2023/03/24 01:55:59;;;;;;;;;;;12.60;99.90;;;;;;5031943;28;21122;-88
2023/03/24 01:58:27;;;;;;;;;;;11.00;99.90;;;;;;5016095;28;19947;-89
2023/03/24 02:00:53;;;;;;;;;;;10.90;99.90;;;;;;5016333;28;20015;-89
2023/03/24 02:03:20;;;;;;;;;;;11.00;99.90;;;;;;5012106;28;20348;-88
2023/03/24 02:05:48;;;;;;;;;;;11.00;99.90;;;;;;5032478;28;19968;-89
2023/03/24 02:08:14;;;;;;;;;;;10.90;99.90;;;;;;5015907;28;20269;-89
2023/03/24 02:10:40;;;;;;;;;;;11.00;99.90;;;;;;5029895;28;19936;-88
2023/03/24 02:13:15;;;;;;;;;;;10.90;99.90;;;;;;5015408;28;19925;-89
2023/03/24 02:15:59;;;;;;;;;;;10.90;99.90;;;;;;5008980;28;20308;-89
2023/03/24 02:18:28;;;;;;;;;;;11.00;99.90;;;;;;5017096;28;20230;-88
2023/03/24 02:21:20;;;;;;;;;;;11.00;99.90;;;;;;5022454;28;20008;-88
2023/03/24 02:23:45;;;;;;;;;;;11.10;99.90;;;;;;5015691;28;19931;-88
2023/03/24 02:26:49;;;;;;;;;;;11.00;99.90;;;;;;5014526;28;19925;-88
2023/03/24 02:29:41;;;;;;;;;;;11.00;99.90;;;;;;5001629;28;19925;-90
2023/03/24 02:32:07;;;;;;;;;;;11.10;99.90;;;;;;5005254;28;20324;-87
2023/03/24 02:34:32;;;;;;;;;;;11.00;99.90;;;;;;5016268;28;20006;-87
2023/03/24 02:37:11;;;;;;;;;;;10.90;99.90;;;;;;5025955;28;19932;-87
2023/03/24 02:39:37;;;;;;;;;;;11.00;99.90;;;;;;5012357;28;20348;-87
2023/03/24 02:42:06;;;;;;;;;;;11.00;99.90;;;;;;5016200;28;19964;-88
2023/03/24 02:44:31;;;;;;;;;;;11.70;99.90;;;;;;5015396;28;19925;-88
2023/03/24 02:47:05;;;;;;;;;;;11.00;99.90;;;;;;5015336;28;19950;-89
2023/03/24 02:49:35;;;;;;;;;;;11.70;99.90;;;;;;5025455;28;19925;-88
2023/03/24 02:52:05;;;;;;;;;;;11.00;99.90;;;;;;5035626;28;19977;-90
2023/03/24 02:54:53;;;;;;;;;;;11.20;99.90;;;;;;5037103;28;20611;-88
2023/03/24 02:57:42;;;;;;;;;;;11.00;99.90;;;;;;5042180;28;19925;-87
2023/03/24 03:00:08;;;;;;;;;;;11.20;99.90;;;;;;5016644;28;20384;-88
2023/03/24 03:02:38;;;;;;;;;;;11.10;99.90;;;;;;5027393;28;19989;-88
2023/03/24 03:05:16;;;;;;;;;;;11.00;99.90;;;;;;5031542;28;19925;-88
2023/03/24 03:07:43;;;;;;;;;;;11.10;99.90;;;;;;5017461;28;19929;-86
2023/03/24 03:10:19;;;;;;;;;;;11.10;99.90;;;;;;5021979;28;19948;-88
2023/03/24 03:12:47;;;;;;;;;;;11.20;99.90;;;;;;5019211;28;19925;-88
2023/03/24 03:15:15;;;;;;;;;;;11.00;99.90;;;;;;5012141;28;20392;-89
2023/03/24 03:17:43;;;;;;;;;;;11.10;99.90;;;;;;5023588;28;19925;-88
2023/03/24 03:20:17;;;;;;;;;;;11.20;99.90;;;;;;5018251;28;20296;-87
2023/03/24 03:22:48;;;;;;;;;;;11.20;99.90;;;;;;5035767;28;19929;-89
2023/03/24 03:25:17;;;;;;;;;;;11.20;99.90;;;;;;5014933;28;20237;-88
2023/03/24 03:27:45;;;;;;;;;;;10.00;99.90;;;;;;5014821;28;20351;-88
2023/03/24 03:30:17;;;;;;;;;;;11.20;99.90;;;;;;5010647;28;20600;-88
2023/03/24 03:32:52;;;;;;;;;;;11.20;99.90;;;;;;5027030;28;19933;-87
2023/03/24 03:35:27;;;;;;;;;;;11.20;99.90;;;;;;5028013;28;19932;-88
2023/03/24 03:37:56;;;;;;;;;;;11.10;99.90;;;;;;5032027;28;19925;-87
2023/03/24 03:40:28;;;;;;;;;;;11.20;99.90;;;;;;5019101;28;20434;-87
2023/03/24 03:42:54;;;;;;;;;;;11.20;99.90;;;;;;5018264;28;19975;-87
2023/03/24 03:45:19;;;;;;;;;;;11.00;99.90;;;;;;5018947;28;20381;-86
2023/03/24 03:47:45;;;;;;;;;;;11.20;99.90;;;;;;5002343;28;19991;-87
2023/03/24 03:50:11;;;;;;;;;;;11.00;99.90;;;;;;5012167;28;19926;-88
2023/03/24 03:52:38;;;;;;;;;;;10.90;99.90;;;;;;5034461;28;19925;-87
2023/03/24 03:55:05;;;;;;;;;;;10.90;99.90;;;;;;5018561;28;20446;-86
2023/03/24 03:57:32;;;;;;;;;;;10.90;99.90;;;;;;5017719;28;19925;-88
2023/03/24 04:00:06;;;;;;;;;;;10.60;99.90;;;;;;5018385;28;19932;-89
2023/03/24 04:02:32;;;;;;;;;;;10.60;99.90;;;;;;5035487;28;19929;-87
2023/03/24 04:05:13;;;;;;;;;;;10.60;99.90;;;;;;5024691;28;19968;-87
2023/03/24 04:07:48;;;;;;;;;;;10.50;99.90;;;;;;5008437;28;19925;-88
2023/03/24 04:10:26;;;;;;;;;;;10.40;99.90;;;;;;5015855;28;20377;-86
2023/03/24 04:13:00;;;;;;;;;;;10.60;99.90;;;;;;5025550;28;20300;-88
2023/03/24 04:15:32;;;;;;;;;;;10.40;99.90;;;;;;5039156;28;20324;-88
2023/03/24 04:18:13;;;;;;;;;;;10.50;99.90;;;;;;5016188;28;19925;-86
2023/03/24 04:21:01;;;;;;;;;;;10.30;99.90;;;;;;5035270;28;19947;-87
2023/03/24 04:23:26;;;;;;;;;;;10.40;99.90;;;;;;5038387;28;19980;-87
2023/03/24 04:26:25;;;;;;;;;;;10.20;99.90;;;;;;5034136;28;19933;-87
2023/03/24 04:28:57;;;;;;;;;;;10.20;99.90;;;;;;5032692;28;19929;-87
2023/03/24 04:31:28;;;;;;;;;;;10.10;99.90;;;;;;5017862;28;19929;-85
2023/03/24 04:34:02;;;;;;;;;;;10.00;99.90;;;;;;5034880;28;19925;-86
2023/03/24 04:36:41;;;;;;;;;;;10.00;99.90;;;;;;5034246;28;19929;-88
2023/03/24 04:39:12;;;;;;;;;;;10.00;99.90;;;;;;5026447;28;19971;-87
2023/03/24 04:41:38;;;;;;;;;;;9.80;99.90;;;;;;5007814;28;19929;-87
2023/03/24 04:44:04;;;;;;;;;;;9.60;99.90;;;;;;5041485;28;19932;-87
2023/03/24 04:46:31;;;;;;;;;;;9.70;99.90;;;;;;5034056;28;19926;-90
2023/03/24 04:48:57;;;;;;;;;;;9.70;99.90;;;;;;5017051;28;19979;-89
2023/03/24 04:51:23;;;;;;;;;;;9.70;99.90;;;;;;5016922;28;19929;-87
2023/03/24 04:53:49;;;;;;;;;;;9.70;99.90;;;;;;5014805;28;19930;-90
2023/03/24 04:56:28;;;;;;;;;;;9.60;99.90;;;;;;5014430;28;20002;-88
2023/03/24 04:58:53;;;;;;;;;;;9.60;99.90;;;;;;5018197;28;19925;-91
2023/03/24 05:01:20;;;;;;;;;;;9.50;99.90;;;;;;5017433;28;19983;-87
2023/03/24 05:03:46;;;;;;;;;;;9.70;99.90;;;;;;5017368;28;19929;-87
2023/03/24 05:06:12;;;;;;;;;;;9.50;99.90;;;;;;5024459;28;20293;-89
2023/03/24 05:08:37;;;;;;;;;;;9.40;99.90;;;;;;5015990;28;19925;-87
2023/03/24 05:11:04;;;;;;;;;;;9.40;99.90;;;;;;5032116;28;19925;-87
2023/03/24 05:13:32;;;;;;;;;;;9.40;99.90;;;;;;5033691;28;19925;-88
2023/03/24 05:15:57;;;;;;;;;;;9.30;99.90;;;;;;5033932;28;20328;-87
2023/03/24 05:18:23;;;;;;;;;;;9.30;99.90;;;;;;5017523;28;19925;-88
2023/03/24 05:20:54;;;;;;;;;;;9.40;99.90;;;;;;5034031;28;19925;-88
2023/03/24 05:23:20;;;;;;;;;;;9.40;99.90;;;;;;5033053;28;20011;-86
2023/03/24 05:25:46;;;;;;;;;;;9.40;99.90;;;;;;5016652;28;20016;-88
2023/03/24 05:28:12;;;;;;;;;;;9.40;99.90;;;;;;5032840;28;19925;-88
2023/03/24 05:30:37;;;;;;;;;;;9.30;99.90;;;;;;5032070;28;20004;-88
2023/03/24 05:33:03;;;;;;;;;;;9.30;99.90;;;;;;5031625;28;19933;-88
2023/03/24 05:35:29;;;;;;;;;;;8.20;99.90;;;;;;5032075;28;20027;-87
2023/03/24 05:37:55;;;;;;;;;;;9.30;99.90;;;;;;5032654;28;19925;-87
2023/03/24 05:40:20;;;;;;;;;;;9.30;99.90;;;;;;5016252;28;19975;-87
2023/03/24 05:42:49;;;;;;;;;;;9.30;99.90;;;;;;5010467;28;19980;-88
2023/03/24 05:45:15;;;;;;;;;;;9.40;99.90;;;;;;5030995;28;19929;-87
2023/03/24 05:47:41;;;;;;;;;;;9.40;99.90;;;;;;5016723;28;19974;-88
2023/03/24 05:50:07;;;;;;;;;;;9.40;99.90;;;;;;5016302;28;20369;-87
2023/03/24 05:52:33;;;;;;;;;;;9.30;99.90;;;;;;5015920;28;20346;-88
2023/03/24 05:54:59;;;;;;;;;;;9.30;99.90;;;;;;5015857;28;19974;-87
2023/03/24 05:57:24;;;;;;;;;;;9.50;99.90;;;;;;5031933;28;19925;-87
2023/03/24 05:59:51;;;;;;;;;;;9.40;99.90;;;;;;5011621;28;19930;-86
2023/03/24 06:02:19;;;;;;;;;;;9.40;99.90;;;;;;5010594;28;19925;-88
2023/03/24 06:04:47;;;;;;;;;;;9.50;99.90;;;;;;5009384;28;20419;-88
2023/03/24 06:07:14;;;;;;;;;;;9.50;99.90;;;;;;5025283;28;20429;-87
2023/03/24 06:09:45;;;;;;;;;;;9.40;99.90;;;;;;5025208;28;19926;-87
2023/03/24 06:12:12;;;;;;;;;;;9.40;99.90;;;;;;5028042;28;20380;-88
2023/03/24 06:14:37;;;;;;;;;;;9.40;99.90;;;;;;5018349;28;19925;-88
2023/03/24 06:17:03;;;;;;;;;;;9.40;99.90;;;;;;5029295;28;20353;-87
2023/03/24 06:19:31;;;;;;;;;;;9.50;99.90;;;;;;5026242;28;19933;-89
2023/03/24 06:22:01;;;;;;;;;;;9.60;99.90;;;;;;5029589;28;19925;-88
2023/03/24 06:24:27;;;;;;;;;;;9.40;99.90;;;;;;5031928;28;19929;-87
2023/03/24 06:27:00;;;;;;;;;;;8.20;99.90;;;;;;5031408;28;19931;-87
2023/03/24 06:29:28;;;;;;;;;;;9.30;99.90;;;;;;5013391;28;20012;-87
2023/03/24 06:31:53;;;;;;;;;;;9.30;99.90;;;;;;5026365;28;19932;-88
2023/03/24 06:34:23;;;;;;;;;;;9.30;99.90;;;;;;5026297;28;20007;-89
2023/03/24 06:36:50;;;;;;;;;;;8.60;99.90;;;;;;5014002;28;19929;-88
2023/03/24 06:39:16;;;;;;;;;;;9.30;99.90;;;;;;5010311;28;20277;-87
2023/03/24 06:41:42;;;;;;;;;;;9.60;99.90;;;;;;5014953;28;20012;-89
2023/03/24 06:44:07;;;;;;;;;;;9.40;99.90;;;;;;5014986;28;20000;-86
2023/03/24 06:46:36;;;;;;;;;;;9.40;99.90;;;;;;5015014;28;20039;-93
2023/03/24 06:49:02;;;;;;;;;;;9.40;99.90;;;;;;5014314;28;20016;-87
2023/03/24 06:51:28;;;;;;;;;;;9.40;99.90;;;;;;5014012;28;19995;-88
2023/03/24 06:54:05;;;;;;;;;;;9.40;99.90;;;;;;5014433;28;20012;-90
2023/03/24 06:56:33;;;;;;;;;;;9.30;99.90;;;;;;4998452;28;19964;-87
2023/03/24 06:59:07;;;;;;;;;;;9.70;99.90;;;;;;4995795;28;19925;-92
2023/03/24 07:01:34;;;;;;;;;;;9.80;99.90;;;;;;5027612;28;19925;-89
2023/03/24 07:04:00;;;;;;;;;;;9.60;99.90;;;;;;5020787;28;19913;-90
2023/03/24 07:06:28;;;;;;;;;;;9.60;99.90;;;;;;5035853;28;19939;-94
2023/03/24 07:09:00;;;;;;;;;;;9.80;99.90;;;;;;5080204;23;19925;-94
2023/03/24 07:11:30;;;;;;;;;;;9.90;99.90;;;;;;5006881;28;19929;-96
2023/03/24 07:13:59;;;;;;;;;;;9.70;99.90;;;;;;5037202;28;20347;-91
2023/03/24 07:16:24;;;;;;;;;;;9.70;99.90;;;;;;5022434;28;19925;-91
2023/03/24 07:18:50;;;;;;;;;;;9.70;99.90;;;;;;5021041;28;20197;-92
2023/03/24 07:21:17;;;;;;;;;;;9.70;99.90;;;;;;5020326;28;19936;-94
2023/03/24 07:23:45;;;;;;;;;;;9.70;99.90;;;;;;5025318;28;20319;-95
2023/03/24 07:26:14;;;;;;;;;;;9.70;99.90;;;;;;5003811;28;19937;-96
2023/03/24 07:28:40;;;;;;;;;;;9.70;99.90;;;;;;5017731;28;19921;-95
2023/03/24 07:31:09;;;;;;;;;;;9.70;99.90;;;;;;5020893;28;20013;-94
2023/03/24 07:33:41;;;;;;;;;;;9.70;99.90;;;;;;5019904;28;19920;-95
2023/03/24 07:36:09;;;;;;;;;;;9.80;99.90;;;;;;5021559;28;19956;-96
2023/03/24 07:38:34;;;;;;;;;;;9.80;99.90;;;;;;5020618;28;19926;-97
2023/03/24 07:41:00;;;;;;;;;;;9.80;99.90;;;;;;5040936;28;19981;-93
2023/03/24 07:43:32;;;;;;;;;;;9.80;99.90;;;;;;5039780;28;19936;-95
2023/03/24 07:45:57;;;;;;;;;;;9.50;99.90;;;;;;5025208;28;19929;-93
2023/03/24 07:48:31;;;;;;;;;;;9.80;99.90;;;;;;5023550;28;19991;-96
2023/03/24 07:50:57;;;;;;;;;;;9.80;99.90;;;;;;5037587;28;19925;-94
2023/03/24 07:53:28;;;;;;;;;;;9.50;99.90;;;;;;5022649;28;19932;-95
2023/03/24 07:55:54;;;;;;;;;;;9.80;99.90;;;;;;5023703;28;20411;-95
2023/03/24 07:58:23;;;;;;;;;;;9.80;99.90;;;;;;5005180;28;19929;-95
2023/03/24 08:00:49;;;;;;;;;;;10.30;99.90;;;;;;5014589;28;19956;-96
2023/03/24 08:03:14;;;;;;;;;;;9.90;99.90;;;;;;5009061;28;19925;-95
2023/03/24 08:05:43;;;;;;;;;;;9.90;99.90;;;;;;5019369;28;20004;-95
2023/03/24 08:08:08;;;;;;;;;;;9.90;99.90;;;;;;5008524;28;19925;-94
2023/03/24 08:10:37;;;;;;;;;;;9.90;99.90;;;;;;5019300;28;19925;-95
2023/03/24 08:13:03;;;;;;;;;;;10.00;99.90;;;;;;5021574;28;19926;-96
2023/03/24 08:15:29;;;;;;;;;;;10.00;99.90;;;;;;5022699;28;19929;-94
2023/03/24 08:17:55;;;;;;;;;;;10.10;99.90;;;;;;5006699;28;19960;-93
2023/03/24 08:20:23;;;;;;;;;;;10.00;99.90;;;;;;5020901;28;20471;-93
2023/03/24 08:22:52;;;;;;;;;;;10.10;99.90;;;;;;5028425;28;19932;-94
2023/03/24 08:25:22;;;;;;;;;;;10.20;99.90;;;;;;5024396;28;19929;-93
2023/03/24 08:27:51;;;;;;;;;;;9.60;99.90;;;;;;5037294;28;19980;-94
2023/03/24 08:30:21;;;;;;;;;;;10.30;99.90;;;;;;5008317;28;19932;-93
2023/03/24 08:33:06;;;;;;;;;;;10.50;99.90;;;;;;5038726;28;19984;-95
2023/03/24 08:35:33;;;;;;;;;;;10.70;99.90;;;;;;4991890;28;20011;-93
2023/03/24 08:38:02;;;;;;;;;;;10.50;99.90;;;;;;5022332;28;19929;-95
2023/03/24 08:40:33;;;;;;;;;;;10.70;99.90;;;;;;5019769;28;20028;-93
2023/03/24 08:43:01;;;;;;;;;;;10.60;99.90;;;;;;5022614;28;19932;-94
2023/03/24 08:45:29;;;;;;;;;;;10.60;99.90;;;;;;5042609;28;19929;-92
2023/03/24 08:47:55;;;;;;;;;;;10.70;99.90;;;;;;5024644;28;19937;-92
2023/03/24 08:50:22;;;;;;;;;;;10.80;99.90;;;;;;5026146;28;19940;-92
2023/03/24 08:52:57;;;;;;;;;;;10.90;99.90;;;;;;5043728;28;19921;-93
2023/03/24 08:55:44;;;;;;;;;;;11.00;99.90;;;;;;5025534;28;19925;-93
2023/03/24 08:58:32;;;;;;;;;;;10.80;99.90;;;;;;5026447;28;19929;-92
2023/03/24 09:01:01;;;;;;;;;;;10.70;99.90;;;;;;5022541;28;19936;-91
2023/03/24 09:03:27;;;;;;;;;;;10.60;99.90;;;;;;5026208;28;20004;-92
2023/03/24 09:05:56;;;;;;;;;;;10.70;99.90;;;;;;5007064;28;19929;-92
2023/03/24 09:08:21;;;;;;;;;;;10.60;99.90;;;;;;5017940;28;19961;-92
2023/03/24 09:10:48;;;;;;;;;;;11.80;99.90;;;;;;5008254;28;19942;-91
2023/03/24 09:13:14;;;;;;;;;;;10.90;99.90;;;;;;5037985;28;19925;-92
2023/03/24 09:15:44;;;;;;;;;;;11.10;99.90;;;;;;5043341;28;19925;-92
2023/03/24 09:18:42;;;;;;;;;;;10.50;99.90;;;;;;5015639;28;19947;-92
2023/03/24 09:21:08;;;;;;;;;;;11.50;99.90;;;;;;5018668;28;19997;-91
2023/03/24 09:23:34;;;;;;;;;;;11.70;99.90;;;;;;5014845;28;19925;-93
2023/03/24 09:26:00;;;;;;;;;;;11.80;99.90;;;;;;5024242;28;20315;-94
2023/03/24 09:28:26;;;;;;;;;;;11.90;99.90;;;;;;5026555;28;19933;-93
2023/03/24 09:30:59;;;;;;;;;;;12.00;99.90;;;;;;5020523;28;19935;-94
2023/03/24 09:33:33;;;;;;;;;;;12.10;99.90;;;;;;5042097;28;19936;-94
2023/03/24 09:36:00;;;;;;;;;;;12.20;99.90;;;;;;5026247;28;19925;-93
2023/03/24 09:38:26;;;;;;;;;;;12.20;99.90;;;;;;5020390;28;19934;-94
2023/03/24 09:40:59;;;;;;;;;;;12.20;99.90;;;;;;5019078;28;19925;-94
2023/03/24 09:43:31;;;;;;;;;;;12.10;99.90;;;;;;5024364;28;19925;-93
2023/03/24 09:45:59;;;;;;;;;;;12.80;99.90;;;;;;5041238;28;20483;-94
2023/03/24 09:48:33;;;;;;;;;;;11.90;99.90;;;;;;5024204;28;20016;-90
2023/03/24 09:51:01;;;;;;;;;;;11.40;99.90;;;;;;5021139;28;19936;-92
2023/03/24 09:53:41;;;;;;;;;;;11.00;99.90;;;;;;5015590;28;19940;-94
2023/03/24 09:56:15;;;;;;;;;;;11.80;99.90;;;;;;5019056;28;19924;-94
2023/03/24 09:58:41;;;;;;;;;;;10.80;99.90;;;;;;5024524;28;19925;-92
2023/03/24 10:01:12;;;;;;;;;;;10.80;99.90;;;;;;5042573;28;19980;-96
2023/03/24 10:03:42;;;;;;;;;;;10.90;99.90;;;;;;5040656;28;19957;-94
2023/03/24 10:06:28;;;;;;;;;;;10.90;99.90;;;;;;5040441;28;19965;-93
2023/03/24 10:09:06;;;;;;;;;;;10.90;99.90;;;;;;5034236;28;19925;-92
2023/03/24 10:11:35;;;;;;;;;;;10.70;99.90;;;;;;5031594;28;19929;-94
2023/03/24 10:14:19;;;;;;;;;;;10.80;99.90;;;;;;5017594;28;19926;-91
2023/03/24 10:16:49;;;;;;;;;;;11.00;99.90;;;;;;5013826;28;19926;-93
2023/03/24 10:19:21;;;;;;;;;;;11.00;99.90;;;;;;5036770;28;20326;-91
2023/03/24 10:21:54;;;;;;;;;;;11.00;99.90;;;;;;5034434;28;19926;-93
2023/03/24 10:24:28;;;;;;;;;;;11.00;99.90;;;;;;5020963;28;19933;-95
2023/03/24 10:26:53;;;;;;;;;;;11.00;99.90;;;;;;5018401;28;19936;-92
2023/03/24 10:29:25;;;;;;;;;;;11.00;99.90;;;;;;5016994;28;19925;-92
2023/03/24 10:31:53;;;;;;;;;;;11.10;99.90;;;;;;5017687;28;20028;-96
2023/03/24 10:34:21;;;;;;;;;;;11.20;99.90;;;;;;5017537;28;19929;-90
2023/03/24 10:36:46;;;;;;;;;;;11.20;99.90;;;;;;5019408;28;19929;-91
2023/03/24 10:39:21;;;;;;;;;;;11.20;99.90;;;;;;5017405;28;19932;-92
2023/03/24 10:41:47;;;;;;;;;;;12.30;99.90;;;;;;5016671;28;20008;-93
2023/03/24 10:44:13;;;;;;;;;;;11.20;99.90;;;;;;5021168;28;19932;-91
2023/03/24 10:46:43;;;;;;;;;;;11.10;99.90;;;;;;5023006;28;19992;-92
2023/03/24 10:49:09;;;;;;;;;;;11.00;99.90;;;;;;5023235;28;19925;-92
2023/03/24 10:51:35;;;;;;;;;;;10.90;99.90;;;;;;5024663;28;19999;-91
2023/03/24 10:54:18;;;;;;;;;;;11.00;99.90;;;;;;5041624;28;19925;-93
2023/03/24 10:56:45;;;;;;;;;;;11.00;99.90;;;;;;5016318;28;19925;-92
2023/03/24 10:59:34;;;;;;;;;;;11.00;99.90;;;;;;5024237;28;19925;-90
2023/03/24 11:02:09;;;;;;;;;;;11.00;99.90;;;;;;5028865;28;20028;-93
2023/03/24 11:04:38;;;;;;;;;;;11.60;99.90;;;;;;5015463;28;19924;-92
2023/03/24 11:07:14;;;;;;;;;;;11.20;99.90;;;;;;5024659;28;19925;-91
2023/03/24 11:09:41;;;;;;;;;;;11.30;99.90;;;;;;5024084;28;19925;-91
2023/03/24 11:12:27;;;;;;;;;;;11.60;99.90;;;;;;5021163;28;19925;-92
2023/03/24 11:15:01;;;;;;;;;;;12.00;99.90;;;;;;5021762;28;19925;-93
2023/03/24 11:17:29;;;;;;;;;;;12.40;99.90;;;;;;5035122;28;22744;-95
2023/03/24 11:19:58;;;;;;;;;;;12.70;99.90;;;;;;5026381;28;19971;-95
2023/03/24 11:22:25;;;;;;;;;;;12.70;99.90;;;;;;5039637;28;19929;-93
2023/03/24 11:24:51;;;;;;;;;;;12.50;99.90;;;;;;5001464;28;19984;-93
2023/03/24 11:27:18;;;;;;;;;;;12.20;99.90;;;;;;5005472;28;19925;-94
2023/03/24 11:29:47;;;;;;;;;;;12.60;99.90;;;;;;5007802;28;19925;-93
2023/03/24 11:32:24;;;;;;;;;;;12.80;99.90;;;;;;5019935;28;19957;-91
2023/03/24 11:35:04;;;;;;;;;;;13.00;99.90;;;;;;5016031;28;19933;-92
2023/03/24 11:37:34;;;;;;;;;;;13.20;99.90;;;;;;5026152;28;19925;-94
2023/03/24 11:40:18;;;;;;;;;;;13.20;99.90;;;;;;5027103;28;19925;-93
2023/03/24 11:43:07;;;;;;;;;;;12.90;99.90;;;;;;5026157;28;20247;-94
2023/03/24 11:45:38;;;;;;;;;;;12.80;99.90;;;;;;5031568;28;19925;-93
2023/03/24 11:48:22;;;;;;;;;;;12.60;99.90;;;;;;5025445;28;19932;-93
2023/03/24 11:50:53;;;;;;;;;;;12.60;99.90;;;;;;5042977;28;19971;-93
2023/03/24 11:53:24;;;;;;;;;;;12.60;99.90;;;;;;5028022;28;19980;-94
2023/03/24 11:55:53;;;;;;;;;;;12.20;99.90;;;;;;5025816;28;20331;-94
2023/03/24 11:58:37;;;;;;;;;;;12.60;99.90;;;;;;5027331;28;19936;-94
2023/03/24 12:01:09;;;;;;;;;;;12.70;99.90;;;;;;5022567;28;20192;-93
2023/03/24 12:03:35;;;;;;;;;;;12.70;99.90;;;;;;5048335;28;19936;-92
2023/03/24 12:06:03;;;;;;;;;;;12.60;99.90;;;;;;5048054;28;19925;-93
2023/03/24 12:08:32;;;;;;;;;;;11.70;99.90;;;;;;5028004;28;19948;-93
2023/03/24 12:11:05;;;;;;;;;;;13.30;99.90;;;;;;5047067;28;20548;-92
2023/03/24 12:13:32;;;;;;;;;;;12.40;99.90;;;;;;5027366;28;19972;-92
2023/03/24 12:15:59;;;;;;;;;;;12.50;99.90;;;;;;5027112;28;19926;-92
2023/03/24 12:18:36;;;;;;;;;;;12.80;99.90;;;;;;5042604;28;19957;-94
2023/03/24 12:21:25;;;;;;;;;;;13.20;99.90;;;;;;5031799;28;19925;-93
2023/03/24 12:23:55;;;;;;;;;;;13.20;99.90;;;;;;5035815;28;19989;-93
2023/03/24 12:26:31;;;;;;;;;;;12.90;99.90;;;;;;5034318;28;19940;-93
2023/03/24 12:29:04;;;;;;;;;;;13.00;99.90;;;;;;5018664;28;19929;-92
2023/03/24 12:31:48;;;;;;;;;;;12.80;99.90;;;;;;5034038;28;19928;-94
2023/03/24 12:34:20;;;;;;;;;;;13.20;99.90;;;;;;5024106;28;19925;-94
2023/03/24 12:37:05;;;;;;;;;;;13.40;99.90;;;;;;5029614;28;19991;-92
2023/03/24 12:39:34;;;;;;;;;;;13.60;99.90;;;;;;5046762;28;19928;-95
2023/03/24 12:42:09;;;;;;;;;;;13.90;99.90;;;;;;5028490;28;19960;-92
2023/03/24 12:44:35;;;;;;;;;;;14.00;99.90;;;;;;5034409;28;19988;-94
2023/03/24 12:47:19;;;;;;;;;;;14.20;99.90;;;;;;5032243;28;19925;-95
2023/03/24 12:50:08;;;;;;;;;;;14.10;99.90;;;;;;5024036;28;19957;-93
2023/03/24 12:52:55;;;;;;;;;;;14.20;99.90;;;;;;5035719;28;19925;-93
2023/03/24 12:55:27;;;;;;;;;;;14.60;99.90;;;;;;5064227;28;19925;-94
2023/03/24 12:57:59;;;;;;;;;;;14.10;99.90;;;;;;5027901;28;19930;-92
2023/03/24 13:00:54;;;;;;;;;;;13.80;99.90;;;;;;5029416;28;20011;-94
2023/03/24 13:03:27;;;;;;;;;;;13.80;99.90;;;;;;5022399;28;19926;-94
2023/03/24 13:06:12;;;;;;;;;;;13.70;99.90;;;;;;5033285;28;19933;-93
2023/03/24 13:08:49;;;;;;;;;;;13.70;99.90;;;;;;5034907;28;19925;-92
2023/03/24 13:11:19;;;;;;;;;;;13.70;99.90;;;;;;5034589;28;19956;-93
2023/03/24 13:13:45;;;;;;;;;;;13.60;99.90;;;;;;5031667;28;19935;-93
2023/03/24 13:16:23;;;;;;;;;;;13.10;99.90;;;;;;5031870;28;20289;-94
2023/03/24 13:18:54;;;;;;;;;;;14.70;99.90;;;;;;5034704;28;20719;-93
2023/03/24 13:21:25;;;;;;;;;;;13.50;99.90;;;;;;5045945;28;19936;-94
2023/03/24 13:23:55;;;;;;;;;;;14.80;99.90;;;;;;5033666;28;19929;-93
2023/03/24 13:26:29;;;;;;;;;;;13.20;99.90;;;;;;5034446;28;19944;-93
2023/03/24 13:28:58;;;;;;;;;;;13.10;99.90;;;;;;5034326;28;19947;-94
2023/03/24 13:31:27;;;;;;;;;;;13.00;99.90;;;;;;5041673;28;19933;-94
2023/03/24 13:33:53;;;;;;;;;;;12.90;99.90;;;;;;5018738;28;19927;-93
2023/03/24 13:36:28;;;;;;;;;;;13.00;99.90;;;;;;5030245;28;19929;-93
2023/03/24 13:39:12;;;;;;;;;;;12.90;99.90;;;;;;5031494;28;20011;-92
2023/03/24 13:41:39;;;;;;;;;;;13.30;99.90;;;;;;5023142;28;20348;-93
2023/03/24 13:44:16;;;;;;;;;;;13.10;99.90;;;;;;5046079;28;20495;-95
2023/03/24 13:46:58;;;;;;;;;;;12.70;99.90;;;;;;5028978;28;19952;-94
2023/03/24 13:49:25;;;;;;;;;;;13.20;99.90;;;;;;5027356;28;19925;-91
2023/03/24 13:51:51;;;;;;;;;;;13.10;99.90;;;;;;5027530;28;19913;-92
2023/03/24 13:54:19;;;;;;;;;;;13.10;99.90;;;;;;5006849;28;19937;-93
2023/03/24 13:57:22;;;;;;;;;;;13.00;99.90;;;;;;5030586;28;19956;-93
2023/03/24 14:00:13;;;;;;;;;;;12.90;99.90;;;;;;4998581;28;19913;-95
2023/03/24 14:02:41;;;;;;;;;;;13.20;99.90;;;;;;5022398;28;19980;-92
2023/03/24 14:05:28;;;;;;;;;;;13.50;99.90;;;;;;5016561;28;20055;-93
2023/03/24 14:08:00;;;;;;;;;;;13.70;99.90;;;;;;5025456;28;19933;-94
2023/03/24 14:10:35;;;;;;;;;;;13.50;99.90;;;;;;5025437;28;19982;-94
2023/03/24 14:13:03;;;;;;;;;;;13.70;99.90;;;;;;5022405;28;19929;-94
2023/03/24 14:15:47;;;;;;;;;;;13.70;99.90;;;;;;5023137;28;19995;-95
2023/03/24 14:18:15;;;;;;;;;;;13.30;99.90;;;;;;5027361;28;19925;-94
2023/03/24 14:21:12;;;;;;;;;;;13.60;99.90;;;;;;5051515;28;20317;-94
2023/03/24 14:23:52;;;;;;;;;;;13.40;99.90;;;;;;5035522;28;19936;-93
2023/03/24 14:26:23;;;;;;;;;;;12.80;99.90;;;;;;5027046;28;19929;-94
2023/03/24 14:28:51;;;;;;;;;;;14.10;99.90;;;;;;5024078;28;19917;-94
2023/03/24 14:31:40;;;;;;;;;;;13.90;99.90;;;;;;5040034;28;19932;-94
2023/03/24 14:34:12;;;;;;;;;;;14.00;99.90;;;;;;5023631;28;19929;-93
2023/03/24 14:36:57;;;;;;;;;;;13.90;99.90;;;;;;5035122;28;20417;-94
2023/03/24 14:39:35;;;;;;;;;;;13.50;99.90;;;;;;5033009;28;19936;-93
2023/03/24 14:42:23;;;;;;;;;;;14.00;99.90;;;;;;5027869;28;19933;-94
2023/03/24 14:45:05;;;;;;;;;;;13.70;99.90;;;;;;5022558;28;19972;-94